createdAt,value
2023-05-23T00:01:18.329Z,42.10
2023-05-23T00:03:45.267Z,40.63
2023-05-23T00:06:11.955Z,38.45
2023-05-23T00:08:38.557Z,39.92
2023-05-23T00:11:05.204Z,42.55
2023-05-23T00:13:34.705Z,39.17
2023-05-23T00:16:02.457Z,35.13
2023-05-23T00:18:30.521Z,34.83
2023-05-23T00:20:57.458Z,35.08
2023-05-23T00:23:25.222Z,35.15
2023-05-23T00:25:54.032Z,32.50
2023-05-23T00:28:20.779Z,33.53
2023-05-23T00:30:49.136Z,31.02
2023-05-23T00:33:17.158Z,29.73
2023-05-23T00:35:43.921Z,29.65
2023-05-23T00:38:11.393Z,29.38
2023-05-23T00:40:38.088Z,28.80
2023-05-23T00:43:04.998Z,28.45
2023-05-23T00:45:31.718Z,25.67
2023-05-23T00:48:00.167Z,26.17
2023-05-23T00:50:31.630Z,26.88
2023-05-23T00:53:00.369Z,24.98
2023-05-23T00:55:27.418Z,26.38
2023-05-23T00:57:56.954Z,26.23
2023-05-23T01:00:25.192Z,26.05
2023-05-23T01:02:53.259Z,24.08
2023-05-23T01:05:22.520Z,22.52
2023-05-23T01:07:51.072Z,26.30
2023-05-23T01:10:23.418Z,24.42
2023-05-23T01:13:19.682Z,25.75
2023-05-23T01:15:52.299Z,26.77
2023-05-23T01:18:30.407Z,26.45
2023-05-23T01:21:07.093Z,25.02
2023-05-23T01:23:55.532Z,27.00
2023-05-23T01:26:26.107Z,28.13
2023-05-23T01:28:57.464Z,30.30
2023-05-23T01:31:26.125Z,29.70
2023-05-23T01:33:54.265Z,28.75
2023-05-23T01:36:21.221Z,29.17
2023-05-23T01:38:47.790Z,31.95
2023-05-23T01:41:14.456Z,33.13
2023-05-23T01:43:41.048Z,32.45
2023-05-23T01:46:08.626Z,36.70
2023-05-23T01:48:36.329Z,33.15
2023-05-23T01:51:03.306Z,36.50
2023-05-23T01:53:31.133Z,36.10
2023-05-23T01:55:58.164Z,37.90
2023-05-23T01:58:24.898Z,34.08
2023-05-23T02:00:51.671Z,36.17
2023-05-23T02:03:18.452Z,35.28
2023-05-23T02:05:45.244Z,39.10
2023-05-23T02:08:11.828Z,39.63
2023-05-23T02:10:38.426Z,38.65
2023-05-23T02:13:05.186Z,39.45
2023-05-23T02:15:31.849Z,40.85
2023-05-23T02:17:58.477Z,40.30
2023-05-23T02:20:25.880Z,40.50
2023-05-23T02:22:52.541Z,39.05
2023-05-23T02:25:19.167Z,37.30
2023-05-23T02:27:45.884Z,39.30
2023-05-23T02:30:13.091Z,39.58
2023-05-23T02:32:39.758Z,38.97
2023-05-23T02:35:06.679Z,37.30
2023-05-23T02:37:33.318Z,36.42
2023-05-23T02:40:00.007Z,38.03
2023-05-23T02:42:26.739Z,36.47
2023-05-23T02:44:54.646Z,34.10
2023-05-23T02:47:21.260Z,32.78
2023-05-23T02:49:47.877Z,34.08
2023-05-23T02:52:14.525Z,36.40
2023-05-23T02:54:41.215Z,32.75
2023-05-23T02:57:07.882Z,33.50
2023-05-23T02:59:34.542Z,34.78
2023-05-23T03:02:01.304Z,31.77
2023-05-23T03:04:27.922Z,32.65
2023-05-23T03:06:55.006Z,32.35
2023-05-23T03:09:21.761Z,34.10
2023-05-23T03:11:48.463Z,34.20
2023-05-23T03:14:15.157Z,31.95
2023-05-23T03:16:41.994Z,32.92
2023-05-23T03:19:08.724Z,30.48
2023-05-23T03:21:35.455Z,28.33
2023-05-23T03:24:02.132Z,28.73
2023-05-23T03:26:28.693Z,27.77
2023-05-23T03:28:55.976Z,26.55
2023-05-23T03:31:22.773Z,27.75
2023-05-23T03:33:50.543Z,26.30
2023-05-23T03:36:17.316Z,25.90
2023-05-23T03:38:44.013Z,26.25
2023-05-23T03:41:11.068Z,25.58
2023-05-23T03:43:37.611Z,24.27
2023-05-23T03:46:04.303Z,25.35
2023-05-23T03:48:31.017Z,23.23
2023-05-23T03:50:57.580Z,24.85
2023-05-23T03:53:24.235Z,24.20
2023-05-23T03:55:50.795Z,24.10
2023-05-23T03:58:17.333Z,25.23
2023-05-23T04:00:43.915Z,22.63
2023-05-23T04:03:11.520Z,23.25
2023-05-23T04:05:38.236Z,20.98
2023-05-23T04:08:05.050Z,17.63
2023-05-23T04:10:31.649Z,18.00
2023-05-23T04:12:58.749Z,17.52
2023-05-23T04:15:25.740Z,16.00
2023-05-23T04:17:52.574Z,17.15
2023-05-23T04:20:19.387Z,17.50
2023-05-23T04:22:46.207Z,17.27
2023-05-23T04:25:13.779Z,17.80
2023-05-23T04:27:40.762Z,17.58
2023-05-23T04:30:10.226Z,18.30
2023-05-23T04:32:38.174Z,18.27
2023-05-23T04:35:05.303Z,16.65
2023-05-23T04:37:32.881Z,17.38
2023-05-23T04:40:03.670Z,17.95
2023-05-23T04:42:30.392Z,17.77
2023-05-23T04:45:02.082Z,18.75
2023-05-23T04:47:29.251Z,18.65
2023-05-23T04:49:57.262Z,18.48
2023-05-23T04:52:23.980Z,19.73
2023-05-23T04:54:50.781Z,20.20
2023-05-23T04:57:17.658Z,19.05
2023-05-23T04:59:44.394Z,18.98
2023-05-23T05:02:11.126Z,20.60
2023-05-23T05:04:37.787Z,20.30
2023-05-23T05:07:05.082Z,20.17
2023-05-23T05:09:31.964Z,21.17
2023-05-23T05:11:59.375Z,20.67
2023-05-23T05:14:27.441Z,21.58
2023-05-23T05:16:57.756Z,21.88
2023-05-23T05:19:24.716Z,22.40
2023-05-23T05:21:51.485Z,22.50
2023-05-23T05:24:20.897Z,22.98
2023-05-23T05:26:48.619Z,22.08
2023-05-23T05:29:15.853Z,23.80
2023-05-23T05:31:45.143Z,23.08
2023-05-23T05:34:12.624Z,24.25
2023-05-23T05:36:45.772Z,22.90
2023-05-23T05:39:13.741Z,23.08
2023-05-23T05:41:40.784Z,22.17
2023-05-23T05:44:08.350Z,23.17
2023-05-23T05:46:35.193Z,22.88
2023-05-23T05:49:01.993Z,21.45
2023-05-23T05:51:29.373Z,20.73
2023-05-23T05:53:56.087Z,20.58
2023-05-23T05:56:22.881Z,20.23
2023-05-23T05:58:49.545Z,20.60
2023-05-23T06:01:16.198Z,19.75
2023-05-23T06:03:43.115Z,20.05
2023-05-23T06:06:10.409Z,18.83
2023-05-23T06:08:37.002Z,19.42
2023-05-23T06:11:03.713Z,18.27
2023-05-23T06:13:30.280Z,18.83
2023-05-23T06:15:58.072Z,18.73
2023-05-23T06:18:24.861Z,18.90
2023-05-23T06:20:51.540Z,19.23
2023-05-23T06:23:18.230Z,19.73
2023-05-23T06:25:45.027Z,18.90
2023-05-23T06:28:11.678Z,18.10
2023-05-23T06:30:39.034Z,17.52
2023-05-23T06:33:05.992Z,16.73
2023-05-23T06:35:32.672Z,16.13
2023-05-23T06:37:59.402Z,16.13
2023-05-23T06:40:26.174Z,15.85
2023-05-23T06:42:52.764Z,14.90
2023-05-23T06:45:19.347Z,14.82
2023-05-23T06:47:48.043Z,13.95
2023-05-23T06:50:14.732Z,13.68
2023-05-23T06:52:42.771Z,13.82
2023-05-23T06:55:09.837Z,13.50
2023-05-23T06:57:36.505Z,13.02
2023-05-23T07:00:03.681Z,12.38
2023-05-23T07:02:30.450Z,10.60
2023-05-23T07:04:57.136Z,11.15
2023-05-23T07:07:23.736Z,11.00
2023-05-23T07:09:50.461Z,10.10
2023-05-23T07:12:17.172Z,10.07
2023-05-23T07:14:43.756Z,9.80
2023-05-23T07:17:10.523Z,9.50
2023-05-23T07:19:37.957Z,9.30
2023-05-23T07:22:04.789Z,9.60
2023-05-23T07:24:31.518Z,8.43
2023-05-23T07:26:58.300Z,8.63
2023-05-23T07:29:24.994Z,8.15
2023-05-23T07:31:51.947Z,8.75
2023-05-23T07:34:18.540Z,7.88
2023-05-23T07:36:45.373Z,7.13
2023-05-23T07:39:12.272Z,6.63
2023-05-23T07:41:38.920Z,6.53
2023-05-23T07:44:06.950Z,6.20
2023-05-23T07:46:33.580Z,5.80
2023-05-23T07:49:00.558Z,5.80
2023-05-23T07:51:27.181Z,5.97
2023-05-23T07:53:54.080Z,5.85
2023-05-23T07:56:20.958Z,6.25
2023-05-23T07:58:47.620Z,6.18
2023-05-23T08:01:14.226Z,6.47
2023-05-23T08:03:41.054Z,5.80
2023-05-23T08:06:08.868Z,6.15
2023-05-23T08:08:36.140Z,6.35
2023-05-23T08:11:02.848Z,6.90
2023-05-23T08:13:30.115Z,6.00
2023-05-23T08:15:56.737Z,5.90
2023-05-23T08:18:23.495Z,5.70
2023-05-23T08:20:50.700Z,5.40
2023-05-23T08:23:17.980Z,5.57
2023-05-23T08:25:44.610Z,5.88
2023-05-23T08:28:11.339Z,5.75
2023-05-23T08:30:38.092Z,5.60
2023-05-23T08:33:05.079Z,5.60
2023-05-23T08:35:36.331Z,5.10
2023-05-23T08:38:07.474Z,4.60
2023-05-23T08:40:35.787Z,4.97
2023-05-23T08:43:02.544Z,5.30
2023-05-23T08:45:32.112Z,4.95
2023-05-23T08:48:01.027Z,4.43
2023-05-23T08:50:30.562Z,4.38
2023-05-23T08:52:59.104Z,4.15
2023-05-23T08:55:28.991Z,3.90
2023-05-23T08:57:59.159Z,3.92
2023-05-23T09:00:26.779Z,4.07
2023-05-23T09:02:54.588Z,3.90
2023-05-23T09:05:21.877Z,3.80
2023-05-23T09:07:49.484Z,3.85
2023-05-23T09:10:22.419Z,3.50
2023-05-23T09:12:49.943Z,3.15
2023-05-23T09:15:17.118Z,3.50
2023-05-23T09:17:44.965Z,3.25
2023-05-23T09:20:16.712Z,3.80
2023-05-23T09:22:49.591Z,3.50
2023-05-23T09:25:16.392Z,3.00
2023-05-23T09:27:45.758Z,3.22
2023-05-23T09:30:14.918Z,3.30
2023-05-23T09:32:42.138Z,3.30
2023-05-23T09:35:13.640Z,3.35
2023-05-23T09:37:45.798Z,3.10
2023-05-23T09:40:14.924Z,3.35
2023-05-23T09:42:44.015Z,3.30
2023-05-23T09:45:14.753Z,3.25
2023-05-23T09:47:54.265Z,2.85
2023-05-23T09:50:21.564Z,3.40
2023-05-23T09:52:48.430Z,3.20
2023-05-23T09:55:15.275Z,3.30
2023-05-23T09:57:43.527Z,3.40
2023-05-23T10:00:13.516Z,3.55
2023-05-23T10:02:58.786Z,3.33
2023-05-23T10:05:46.166Z,3.65
2023-05-23T10:08:21.998Z,3.50
2023-05-23T10:10:57.658Z,3.05
2023-05-23T10:13:28.877Z,2.80
2023-05-23T10:16:09.626Z,3.20
2023-05-23T10:18:44.492Z,3.03
2023-05-23T10:21:32.176Z,3.35
2023-05-23T10:24:00.586Z,3.10
2023-05-23T10:26:28.460Z,2.97
2023-05-23T10:28:55.988Z,2.97
2023-05-23T10:31:23.842Z,2.95
2023-05-23T10:34:01.096Z,3.00
2023-05-23T10:37:07.067Z,3.08
2023-05-23T10:39:49.519Z,3.30
2023-05-23T10:42:24.570Z,3.40
2023-05-23T10:44:51.300Z,3.15
2023-05-23T10:47:27.580Z,2.90
2023-05-23T10:49:55.698Z,2.95
2023-05-23T10:52:26.652Z,2.90
2023-05-23T10:54:54.376Z,2.97
2023-05-23T10:57:28.998Z,2.80
2023-05-23T10:59:56.082Z,2.67
2023-05-23T11:02:27.616Z,2.88
2023-05-23T11:05:21.032Z,2.67
2023-05-23T11:08:06.080Z,2.80
2023-05-23T11:10:32.931Z,2.42
2023-05-23T11:13:10.815Z,2.55
2023-05-23T11:15:45.120Z,2.53
2023-05-23T11:18:21.010Z,2.70
2023-05-23T11:20:49.329Z,3.20
2023-05-23T11:23:15.956Z,3.15
2023-05-23T11:25:44.955Z,3.53
2023-05-23T11:28:12.793Z,3.58
2023-05-23T11:30:40.822Z,3.90
2023-05-23T11:33:12.187Z,3.97
2023-05-23T11:35:40.725Z,3.50
2023-05-23T11:38:07.621Z,3.25
2023-05-23T11:40:37.156Z,3.30
2023-05-23T11:43:06.068Z,2.65
2023-05-23T11:45:34.261Z,2.58
2023-05-23T11:48:12.519Z,2.50
2023-05-23T11:50:49.759Z,2.38
2023-05-23T11:53:19.006Z,2.60
2023-05-23T11:55:57.668Z,2.85
2023-05-23T11:58:30.392Z,2.78
2023-05-23T12:01:08.435Z,2.67
2023-05-23T12:03:44.625Z,2.20
2023-05-23T12:06:14.054Z,2.50
2023-05-23T12:08:41.187Z,2.10
2023-05-23T12:11:08.048Z,2.55
2023-05-23T12:13:34.744Z,2.30
2023-05-23T12:16:06.467Z,2.42
2023-05-23T12:18:34.018Z,2.30
2023-05-23T12:21:07.787Z,1.77
2023-05-23T12:23:35.696Z,2.03
2023-05-23T12:26:07.144Z,1.67
2023-05-23T12:28:39.110Z,1.50
2023-05-23T12:31:13.422Z,1.60
2023-05-23T12:33:42.611Z,1.50
2023-05-23T12:36:09.392Z,1.45
2023-05-23T12:38:38.142Z,1.58
2023-05-23T12:41:11.927Z,1.50
2023-05-23T12:43:40.594Z,1.70
2023-05-23T12:46:08.048Z,1.65
2023-05-23T12:48:34.776Z,1.50
2023-05-23T12:51:03.024Z,1.30
2023-05-23T12:53:29.734Z,2.03
2023-05-23T12:55:56.352Z,1.27
2023-05-23T12:58:23.587Z,1.08
2023-05-23T13:00:50.533Z,1.10
2023-05-23T13:03:18.385Z,1.35
2023-05-23T13:05:45.131Z,1.40
2023-05-23T13:08:12.286Z,1.40
2023-05-23T13:10:39.309Z,1.23
2023-05-23T13:13:05.968Z,1.38
2023-05-23T13:15:32.623Z,1.98
2023-05-23T13:18:00.265Z,2.10
2023-05-23T13:20:30.103Z,1.85
2023-05-23T13:22:57.690Z,1.58
2023-05-23T13:25:25.207Z,1.30
2023-05-23T13:27:52.961Z,1.38
2023-05-23T13:30:21.172Z,1.13
2023-05-23T13:32:49.051Z,1.48
2023-05-23T13:35:17.528Z,1.60
2023-05-23T13:37:44.201Z,1.35
2023-05-23T13:40:18.244Z,1.60
2023-05-23T13:42:46.163Z,1.55
2023-05-23T13:45:13.494Z,1.88
2023-05-23T13:47:40.092Z,1.80
2023-05-23T13:50:07.455Z,2.08
2023-05-23T13:52:34.125Z,2.42
2023-05-23T13:55:01.487Z,2.00
2023-05-23T13:57:28.396Z,2.55
2023-05-23T13:59:55.020Z,2.78
2023-05-23T14:02:22.738Z,2.80
2023-05-23T14:04:52.563Z,2.70
2023-05-23T14:07:19.374Z,2.95
2023-05-23T14:09:45.935Z,2.90
2023-05-23T14:12:12.478Z,3.22
2023-05-23T14:14:39.258Z,2.75
2023-05-23T14:17:06.059Z,3.00
2023-05-23T14:19:32.995Z,2.90
2023-05-23T14:21:59.748Z,3.20
2023-05-23T14:24:26.416Z,3.17
2023-05-23T14:26:53.132Z,3.15
2023-05-23T14:29:19.914Z,3.10
2023-05-23T14:31:46.624Z,3.55
2023-05-23T14:34:13.460Z,3.15
2023-05-23T14:36:40.006Z,2.88
2023-05-23T14:39:10.394Z,3.35
2023-05-23T14:41:37.393Z,3.33
2023-05-23T14:44:04.307Z,3.70
2023-05-23T14:46:31.398Z,3.80
2023-05-23T14:48:58.203Z,3.80
2023-05-23T14:51:43.246Z,3.65
2023-05-23T14:54:12.000Z,4.28
2023-05-23T14:56:40.989Z,4.18
2023-05-23T14:59:08.126Z,4.50
2023-05-23T15:01:36.615Z,4.35
2023-05-23T15:04:05.786Z,4.57
2023-05-23T15:06:33.066Z,4.40
2023-05-23T15:08:59.760Z,4.40
2023-05-23T15:11:27.780Z,4.28
2023-05-23T15:13:54.575Z,4.25
2023-05-23T15:16:21.771Z,3.97
2023-05-23T15:18:48.518Z,3.35
2023-05-23T15:21:15.454Z,3.45
2023-05-23T15:23:42.165Z,3.28
2023-05-23T15:26:08.979Z,3.50
2023-05-23T15:28:35.724Z,3.08
2023-05-23T15:31:02.426Z,3.00
2023-05-23T15:33:29.110Z,3.00
2023-05-23T15:35:57.702Z,2.85
2023-05-23T15:38:24.329Z,2.50
2023-05-23T15:40:54.337Z,2.92
2023-05-23T15:43:21.046Z,2.60
2023-05-23T15:45:50.709Z,2.47
2023-05-23T15:48:17.553Z,2.42
2023-05-23T15:50:44.589Z,2.50
2023-05-23T15:53:11.576Z,2.58
2023-05-23T15:55:40.481Z,2.70
2023-05-23T15:58:09.553Z,2.67
2023-05-23T16:00:36.624Z,2.25
2023-05-23T16:03:03.373Z,2.72
2023-05-23T16:05:30.377Z,2.70
2023-05-23T16:07:57.113Z,2.67
2023-05-23T16:10:24.616Z,2.50
2023-05-23T16:12:51.406Z,2.60
2023-05-23T16:15:18.123Z,2.90
2023-05-23T16:17:44.887Z,2.90
2023-05-23T16:20:11.800Z,2.97
2023-05-23T16:22:38.443Z,3.00
2023-05-23T16:25:06.730Z,3.13
2023-05-23T16:27:33.563Z,2.80
2023-05-23T16:30:00.246Z,2.80
2023-05-23T16:32:28.323Z,2.30
2023-05-23T16:34:54.994Z,2.72
2023-05-23T16:37:21.596Z,2.53
2023-05-23T16:39:48.201Z,2.30
2023-05-23T16:42:14.967Z,2.30
2023-05-23T16:44:41.931Z,2.10
2023-05-23T16:47:08.621Z,2.15
2023-05-23T16:49:35.462Z,2.20
2023-05-23T16:52:02.945Z,2.17
2023-05-23T16:54:29.576Z,2.20
2023-05-23T16:56:57.587Z,2.30
2023-05-23T16:59:24.218Z,2.22
2023-05-23T17:01:51.721Z,2.13
2023-05-23T17:04:20.400Z,2.50
2023-05-23T17:06:47.252Z,2.60
2023-05-23T17:09:13.954Z,2.38
2023-05-23T17:11:40.643Z,2.50
2023-05-23T17:14:07.261Z,2.80
2023-05-23T17:16:34.271Z,2.70
2023-05-23T17:19:01.583Z,2.70
2023-05-23T17:21:28.327Z,2.70
2023-05-23T17:23:55.007Z,2.70
2023-05-23T17:26:21.713Z,3.03
2023-05-23T17:28:48.606Z,3.00
2023-05-23T17:31:15.547Z,3.30
2023-05-23T17:33:42.257Z,2.97
2023-05-23T17:36:08.971Z,3.20
2023-05-23T17:38:35.696Z,2.88
2023-05-23T17:41:02.534Z,3.17
2023-05-23T17:43:29.352Z,3.65
2023-05-23T17:45:59.786Z,3.40
2023-05-23T17:48:45.231Z,3.17
2023-05-23T17:51:14.057Z,2.95
2023-05-23T17:53:41.534Z,3.10
2023-05-23T17:56:09.342Z,3.20
2023-05-23T17:58:42.567Z,3.50
2023-05-23T18:01:19.008Z,3.75
2023-05-23T18:03:47.778Z,3.30
2023-05-23T18:06:14.691Z,3.03
2023-05-23T18:08:41.884Z,3.45
2023-05-23T18:11:08.830Z,3.00
2023-05-23T18:13:36.432Z,3.05
2023-05-23T18:16:03.366Z,3.00
2023-05-23T18:18:36.272Z,3.22
2023-05-23T18:21:03.079Z,3.08
2023-05-23T18:23:29.888Z,3.38
2023-05-23T18:25:56.811Z,2.80
2023-05-23T18:28:26.981Z,2.90
2023-05-23T18:30:53.974Z,3.20
2023-05-23T18:33:24.597Z,3.20
2023-05-23T18:35:53.176Z,3.10
2023-05-23T18:38:19.853Z,3.15
2023-05-23T18:40:46.566Z,3.13
2023-05-23T18:43:16.961Z,3.75
2023-05-23T18:45:44.179Z,3.38
2023-05-23T18:48:11.629Z,3.17
2023-05-23T18:50:38.608Z,3.17
2023-05-23T18:53:07.304Z,3.08
2023-05-23T18:55:34.398Z,3.45
2023-05-23T18:58:02.476Z,2.88
2023-05-23T19:00:30.580Z,3.03
2023-05-23T19:02:58.244Z,3.47
2023-05-23T19:05:26.642Z,2.85
2023-05-23T19:07:55.325Z,3.20
2023-05-23T19:10:21.917Z,3.15
2023-05-23T19:12:48.918Z,3.30
2023-05-23T19:15:15.623Z,3.40
2023-05-23T19:17:42.262Z,3.13
2023-05-23T19:20:10.555Z,3.17
2023-05-23T19:22:50.320Z,3.10
2023-05-23T19:25:18.150Z,3.25
2023-05-23T19:27:46.223Z,3.40
2023-05-23T19:30:13.026Z,3.35
2023-05-23T19:32:39.813Z,3.30
2023-05-23T19:35:06.819Z,3.55
2023-05-23T19:37:33.509Z,4.20
2023-05-23T19:40:01.568Z,3.78
2023-05-23T19:42:28.232Z,3.97
2023-05-23T19:44:55.110Z,3.67
2023-05-23T19:47:21.987Z,3.20
2023-05-23T19:49:48.621Z,3.67
2023-05-23T19:52:15.250Z,3.83
2023-05-23T19:54:43.029Z,3.60
2023-05-23T19:57:09.695Z,3.55
2023-05-23T19:59:36.340Z,3.83
2023-05-23T20:02:03.133Z,4.30
2023-05-23T20:04:29.817Z,3.80
2023-05-23T20:06:56.552Z,3.90
2023-05-23T20:09:23.487Z,3.65
2023-05-23T20:11:50.248Z,3.42
2023-05-23T20:14:17.010Z,3.88
2023-05-23T20:16:43.725Z,3.50
2023-05-23T20:19:10.513Z,3.58
2023-05-23T20:21:37.321Z,3.70
2023-05-23T20:24:04.095Z,3.28
2023-05-23T20:26:30.774Z,3.30
2023-05-23T20:28:57.501Z,3.40
2023-05-23T20:31:24.273Z,3.50
2023-05-23T20:33:52.342Z,3.45
2023-05-23T20:36:20.697Z,3.72
2023-05-23T20:38:47.799Z,3.28
2023-05-23T20:41:14.529Z,4.13
2023-05-23T20:43:41.416Z,4.00
2023-05-23T20:46:09.899Z,4.07
2023-05-23T20:48:36.584Z,3.95
2023-05-23T20:51:05.522Z,3.58
2023-05-23T20:53:32.550Z,4.30
2023-05-23T20:55:59.678Z,3.50
2023-05-23T20:58:26.712Z,3.85
2023-05-23T21:00:53.441Z,4.15
2023-05-23T21:03:20.469Z,3.92
2023-05-23T21:05:47.110Z,3.90
2023-05-23T21:08:13.756Z,4.43
2023-05-23T21:10:40.948Z,3.78
2023-05-23T21:13:08.058Z,4.00
2023-05-23T21:15:34.807Z,3.30
2023-05-23T21:18:01.438Z,3.92
2023-05-23T21:20:29.015Z,4.63
2023-05-23T21:22:55.954Z,3.80
2023-05-23T21:25:22.757Z,4.20
2023-05-23T21:27:49.417Z,4.32
2023-05-23T21:30:16.117Z,3.63
2023-05-23T21:32:43.438Z,3.85
2023-05-23T21:35:10.405Z,3.70
2023-05-23T21:37:36.980Z,3.92
2023-05-23T21:40:03.901Z,3.95
2023-05-23T21:42:30.927Z,3.38
2023-05-23T21:44:57.726Z,3.30
2023-05-23T21:47:25.061Z,3.80
2023-05-23T21:49:52.009Z,3.45
2023-05-23T21:52:18.797Z,3.67
2023-05-23T21:54:48.797Z,3.50
2023-05-23T21:57:16.210Z,3.78
2023-05-23T21:59:43.012Z,3.92
2023-05-23T22:02:11.195Z,3.35
2023-05-23T22:04:37.827Z,3.35
2023-05-23T22:07:04.969Z,3.45
2023-05-23T22:09:31.646Z,3.55
2023-05-23T22:11:58.227Z,3.30
2023-05-23T22:14:24.853Z,3.40
2023-05-23T22:16:52.241Z,3.30
2023-05-23T22:19:19.886Z,3.65
2023-05-23T22:21:47.081Z,3.75
2023-05-23T22:24:13.670Z,3.50
2023-05-23T22:26:40.283Z,3.97
2023-05-23T22:29:07.090Z,3.47
2023-05-23T22:31:35.324Z,3.53
2023-05-23T22:34:02.663Z,3.97
2023-05-23T22:36:29.360Z,3.92
2023-05-23T22:38:56.370Z,4.32
2023-05-23T22:41:23.339Z,3.47
2023-05-23T22:43:50.004Z,3.95
2023-05-23T22:46:16.699Z,4.43
2023-05-23T22:48:44.790Z,4.13
2023-05-23T22:51:13.203Z,3.80
2023-05-23T22:53:41.054Z,4.00
2023-05-23T22:56:07.885Z,4.00
2023-05-23T22:58:34.554Z,3.90
2023-05-23T23:01:01.207Z,4.05
2023-05-23T23:03:27.839Z,3.80
2023-05-23T23:05:54.476Z,3.65
2023-05-23T23:08:21.721Z,3.70
2023-05-23T23:10:48.383Z,3.95
2023-05-23T23:13:15.226Z,3.90
2023-05-23T23:15:42.845Z,3.90
2023-05-23T23:18:09.783Z,3.97
2023-05-23T23:20:36.560Z,4.20
2023-05-23T23:23:03.272Z,3.53
2023-05-23T23:25:30.290Z,3.00
2023-05-23T23:27:57.026Z,3.75
2023-05-23T23:30:23.738Z,3.30
2023-05-23T23:32:50.354Z,4.35
2023-05-23T23:35:16.997Z,3.97
2023-05-23T23:37:43.661Z,3.90
2023-05-23T23:40:10.875Z,3.63
2023-05-23T23:42:37.533Z,3.70
2023-05-23T23:45:05.038Z,3.70
2023-05-23T23:47:32.464Z,3.88
2023-05-23T23:49:59.147Z,3.72
2023-05-23T23:52:25.937Z,3.03
2023-05-23T23:54:52.544Z,4.10
2023-05-23T23:57:19.121Z,3.70
2023-05-23T23:59:45.959Z,3.85
